sensor_id;sensor_type;location;lat;lon;timestamp;temperature;humidity
11824;DHT22;5969;50.780;7.726;2023-05-10T00:01:32;11.90;99.90
11824;DHT22;5969;50.780;7.726;2023-05-10T00:03:59;12.00;99.90
11824;DHT22;5969;50.780;7.726;2023-05-10T00:06:26;12.00;99.90
11824;DHT22;5969;50.780;7.726;2023-05-10T00:08:53;11.90;99.90
11824;DHT22;5969;50.780;7.726;2023-05-10T00:11:20;11.90;99.90
11824;DHT22;5969;50.780;7.726;2023-05-10T00:13:48;12.00;99.90
11824;DHT22;5969;50.780;7.726;2023-05-10T00:16:15;11.90;99.90
11824;DHT22;5969;50.780;7.726;2023-05-10T00:18:41;12.00;99.90
11824;DHT22;5969;50.780;7.726;2023-05-10T00:21:08;12.00;99.90
11824;DHT22;5969;50.780;7.726;2023-05-10T00:23:35;12.00;99.90
11824;DHT22;5969;50.780;7.726;2023-05-10T00:26:02;11.90;99.90
11824;DHT22;5969;50.780;7.726;2023-05-10T00:28:28;12.00;99.90
11824;DHT22;5969;50.780;7.726;2023-05-10T00:30:56;11.90;99.90
11824;DHT22;5969;50.780;7.726;2023-05-10T00:33:23;11.90;99.90
11824;DHT22;5969;50.780;7.726;2023-05-10T00:35:50;11.90;99.90
11824;DHT22;5969;50.780;7.726;2023-05-10T00:38:17;11.90;99.90
11824;DHT22;5969;50.780;7.726;2023-05-10T00:40:43;11.90;99.90
11824;DHT22;5969;50.780;7.726;2023-05-10T00:43:10;11.90;99.90
11824;DHT22;5969;50.780;7.726;2023-05-10T00:45:37;12.00;99.90
11824;DHT22;5969;50.780;7.726;2023-05-10T00:48:08;11.90;99.90
11824;DHT22;5969;50.780;7.726;2023-05-10T00:50:35;12.00;99.90
11824;DHT22;5969;50.780;7.726;2023-05-10T00:53:02;11.90;99.90
11824;DHT22;5969;50.780;7.726;2023-05-10T00:55:30;11.90;99.90
11824;DHT22;5969;50.780;7.726;2023-05-10T00:57:57;11.90;99.90
11824;DHT22;5969;50.780;7.726;2023-05-10T01:00:23;11.90;99.90
11824;DHT22;5969;50.780;7.726;2023-05-10T01:02:52;11.80;99.90
11824;DHT22;5969;50.780;7.726;2023-05-10T01:05:21;11.90;99.90
11824;DHT22;5969;50.780;7.726;2023-05-10T01:07:47;11.90;99.90
11824;DHT22;5969;50.780;7.726;2023-05-10T01:10:14;11.80;99.90
11824;DHT22;5969;50.780;7.726;2023-05-10T01:12:46;11.90;99.90
11824;DHT22;5969;50.780;7.726;2023-05-10T01:15:14;11.90;99.90
11824;DHT22;5969;50.780;7.726;2023-05-10T01:17:44;11.90;99.90
11824;DHT22;5969;50.780;7.726;2023-05-10T01:20:12;11.90;99.90
11824;DHT22;5969;50.780;7.726;2023-05-10T01:22:56;11.90;99.90
11824;DHT22;5969;50.780;7.726;2023-05-10T01:25:42;11.90;99.90
11824;DHT22;5969;50.780;7.726;2023-05-10T01:28:26;11.90;99.90
11824;DHT22;5969;50.780;7.726;2023-05-10T01:31:18;11.90;99.90
11824;DHT22;5969;50.780;7.726;2023-05-10T01:33:54;11.90;99.90
11824;DHT22;5969;50.780;7.726;2023-05-10T01:36:26;11.90;99.90
11824;DHT22;5969;50.780;7.726;2023-05-10T01:39:01;11.90;99.90
11824;DHT22;5969;50.780;7.726;2023-05-10T01:41:36;11.90;99.90
11824;DHT22;5969;50.780;7.726;2023-05-10T01:44:15;11.90;99.90
11824;DHT22;5969;50.780;7.726;2023-05-10T01:46:43;11.90;99.90
11824;DHT22;5969;50.780;7.726;2023-05-10T01:49:23;11.90;99.90
11824;DHT22;5969;50.780;7.726;2023-05-10T01:51:53;11.90;99.90
11824;DHT22;5969;50.780;7.726;2023-05-10T01:54:22;11.90;99.90
11824;DHT22;5969;50.780;7.726;2023-05-10T01:56:52;11.90;99.90
11824;DHT22;5969;50.780;7.726;2023-05-10T01:59:19;12.00;99.90
11824;DHT22;5969;50.780;7.726;2023-05-10T02:01:47;11.90;99.90
11824;DHT22;5969;50.780;7.726;2023-05-10T02:04:17;11.90;99.90
11824;DHT22;5969;50.780;7.726;2023-05-10T02:06:46;11.90;99.90
11824;DHT22;5969;50.780;7.726;2023-05-10T02:09:14;12.00;99.90
11824;DHT22;5969;50.780;7.726;2023-05-10T02:11:43;11.90;99.90
11824;DHT22;5969;50.780;7.726;2023-05-10T02:14:10;11.90;99.90
11824;DHT22;5969;50.780;7.726;2023-05-10T02:16:39;11.90;99.90
11824;DHT22;5969;50.780;7.726;2023-05-10T02:19:07;11.90;99.90
11824;DHT22;5969;50.780;7.726;2023-05-10T02:21:37;11.90;99.90
11824;DHT22;5969;50.780;7.726;2023-05-10T02:24:05;11.90;99.90
11824;DHT22;5969;50.780;7.726;2023-05-10T02:26:35;12.00;99.90
11824;DHT22;5969;50.780;7.726;2023-05-10T02:29:03;11.90;99.90
11824;DHT22;5969;50.780;7.726;2023-05-10T02:31:31;11.90;99.90
11824;DHT22;5969;50.780;7.726;2023-05-10T02:33:59;11.90;99.90
11824;DHT22;5969;50.780;7.726;2023-05-10T02:36:27;11.90;99.90
11824;DHT22;5969;50.780;7.726;2023-05-10T02:38:56;11.90;99.90
11824;DHT22;5969;50.780;7.726;2023-05-10T02:41:24;12.00;99.90
11824;DHT22;5969;50.780;7.726;2023-05-10T02:43:54;12.00;99.90
11824;DHT22;5969;50.780;7.726;2023-05-10T02:46:22;12.00;99.90
11824;DHT22;5969;50.780;7.726;2023-05-10T02:48:49;12.00;99.90
11824;DHT22;5969;50.780;7.726;2023-05-10T02:51:18;12.00;99.90
11824;DHT22;5969;50.780;7.726;2023-05-10T02:53:46;12.00;99.90
11824;DHT22;5969;50.780;7.726;2023-05-10T02:56:22;12.00;99.90
11824;DHT22;5969;50.780;7.726;2023-05-10T02:58:50;12.00;99.90
11824;DHT22;5969;50.780;7.726;2023-05-10T03:01:17;11.90;99.90
11824;DHT22;5969;50.780;7.726;2023-05-10T03:03:43;11.90;99.90
11824;DHT22;5969;50.780;7.726;2023-05-10T03:06:10;11.90;99.90
11824;DHT22;5969;50.780;7.726;2023-05-10T03:08:37;11.90;99.90
11824;DHT22;5969;50.780;7.726;2023-05-10T03:11:22;11.90;99.90
11824;DHT22;5969;50.780;7.726;2023-05-10T03:13:56;12.00;99.90
11824;DHT22;5969;50.780;7.726;2023-05-10T03:16:36;12.00;99.90
11824;DHT22;5969;50.780;7.726;2023-05-10T03:19:09;12.00;99.90
11824;DHT22;5969;50.780;7.726;2023-05-10T03:21:38;12.00;99.90
11824;DHT22;5969;50.780;7.726;2023-05-10T03:24:08;12.00;99.90
11824;DHT22;5969;50.780;7.726;2023-05-10T03:26:38;12.00;99.90
11824;DHT22;5969;50.780;7.726;2023-05-10T03:29:06;12.00;99.90
11824;DHT22;5969;50.780;7.726;2023-05-10T03:31:34;11.90;99.90
11824;DHT22;5969;50.780;7.726;2023-05-10T03:34:01;12.00;99.90
11824;DHT22;5969;50.780;7.726;2023-05-10T03:36:28;12.00;99.90
11824;DHT22;5969;50.780;7.726;2023-05-10T03:38:54;12.00;99.90
11824;DHT22;5969;50.780;7.726;2023-05-10T03:41:21;12.00;99.90
11824;DHT22;5969;50.780;7.726;2023-05-10T03:43:49;12.00;99.90
11824;DHT22;5969;50.780;7.726;2023-05-10T03:46:16;12.10;99.90
11824;DHT22;5969;50.780;7.726;2023-05-10T03:48:43;12.10;99.90
11824;DHT22;5969;50.780;7.726;2023-05-10T03:51:10;12.10;99.90
11824;DHT22;5969;50.780;7.726;2023-05-10T03:53:36;12.10;99.90
11824;DHT22;5969;50.780;7.726;2023-05-10T03:56:03;12.10;99.90
11824;DHT22;5969;50.780;7.726;2023-05-10T03:58:30;12.10;99.90
11824;DHT22;5969;50.780;7.726;2023-05-10T04:00:58;12.10;99.90
11824;DHT22;5969;50.780;7.726;2023-05-10T04:03:25;12.10;99.90
11824;DHT22;5969;50.780;7.726;2023-05-10T04:05:58;12.10;99.90
11824;DHT22;5969;50.780;7.726;2023-05-10T04:08:27;12.10;99.90
11824;DHT22;5969;50.780;7.726;2023-05-10T04:10:54;12.10;99.90
11824;DHT22;5969;50.780;7.726;2023-05-10T04:13:21;12.10;99.90
11824;DHT22;5969;50.780;7.726;2023-05-10T04:15:48;12.00;99.90
11824;DHT22;5969;50.780;7.726;2023-05-10T04:18:16;12.00;99.90
11824;DHT22;5969;50.780;7.726;2023-05-10T04:20:42;12.00;99.90
11824;DHT22;5969;50.780;7.726;2023-05-10T04:23:09;12.10;99.90
11824;DHT22;5969;50.780;7.726;2023-05-10T04:25:36;12.00;99.90
11824;DHT22;5969;50.780;7.726;2023-05-10T04:28:03;12.00;99.90
11824;DHT22;5969;50.780;7.726;2023-05-10T04:30:30;12.00;99.90
11824;DHT22;5969;50.780;7.726;2023-05-10T04:32:56;12.00;99.90
11824;DHT22;5969;50.780;7.726;2023-05-10T04:35:25;12.00;99.90
11824;DHT22;5969;50.780;7.726;2023-05-10T04:37:52;12.00;99.90
11824;DHT22;5969;50.780;7.726;2023-05-10T04:40:19;12.00;99.90
11824;DHT22;5969;50.780;7.726;2023-05-10T04:42:46;12.00;99.90
11824;DHT22;5969;50.780;7.726;2023-05-10T04:45:13;12.10;99.90
11824;DHT22;5969;50.780;7.726;2023-05-10T04:47:40;12.00;99.90
11824;DHT22;5969;50.780;7.726;2023-05-10T04:50:07;11.90;99.90
11824;DHT22;5969;50.780;7.726;2023-05-10T04:52:36;12.00;99.90
11824;DHT22;5969;50.780;7.726;2023-05-10T04:55:03;12.00;99.90
11824;DHT22;5969;50.780;7.726;2023-05-10T04:57:30;12.00;99.90
11824;DHT22;5969;50.780;7.726;2023-05-10T04:59:56;12.00;99.90
11824;DHT22;5969;50.780;7.726;2023-05-10T05:02:23;11.90;99.90
11824;DHT22;5969;50.780;7.726;2023-05-10T05:04:50;12.00;99.90
11824;DHT22;5969;50.780;7.726;2023-05-10T05:07:17;12.00;99.90
11824;DHT22;5969;50.780;7.726;2023-05-10T05:09:45;12.10;99.90
11824;DHT22;5969;50.780;7.726;2023-05-10T05:12:12;12.10;99.90
11824;DHT22;5969;50.780;7.726;2023-05-10T05:14:39;12.20;99.90
11824;DHT22;5969;50.780;7.726;2023-05-10T05:17:06;12.20;99.90
11824;DHT22;5969;50.780;7.726;2023-05-10T05:19:33;12.20;99.90
11824;DHT22;5969;50.780;7.726;2023-05-10T05:22:01;12.20;99.90
11824;DHT22;5969;50.780;7.726;2023-05-10T05:24:29;12.20;99.90
11824;DHT22;5969;50.780;7.726;2023-05-10T05:26:57;12.20;99.90
11824;DHT22;5969;50.780;7.726;2023-05-10T05:29:23;12.20;99.90
11824;DHT22;5969;50.780;7.726;2023-05-10T05:31:50;12.30;99.90
11824;DHT22;5969;50.780;7.726;2023-05-10T05:34:17;12.30;99.90
11824;DHT22;5969;50.780;7.726;2023-05-10T05:36:45;12.40;99.90
11824;DHT22;5969;50.780;7.726;2023-05-10T05:39:12;12.40;99.90
11824;DHT22;5969;50.780;7.726;2023-05-10T05:41:39;12.40;99.90
11824;DHT22;5969;50.780;7.726;2023-05-10T05:44:07;12.30;99.90
11824;DHT22;5969;50.780;7.726;2023-05-10T05:46:34;12.30;99.90
11824;DHT22;5969;50.780;7.726;2023-05-10T05:49:02;12.30;99.90
11824;DHT22;5969;50.780;7.726;2023-05-10T05:51:28;12.30;99.90
11824;DHT22;5969;50.780;7.726;2023-05-10T05:53:55;12.30;99.90
11824;DHT22;5969;50.780;7.726;2023-05-10T05:56:22;12.40;99.90
11824;DHT22;5969;50.780;7.726;2023-05-10T05:58:49;12.60;99.90
11824;DHT22;5969;50.780;7.726;2023-05-10T06:01:17;12.50;99.90
11824;DHT22;5969;50.780;7.726;2023-05-10T06:03:44;12.50;99.90
11824;DHT22;5969;50.780;7.726;2023-05-10T06:06:11;12.60;99.90
11824;DHT22;5969;50.780;7.726;2023-05-10T06:08:38;12.70;99.90
11824;DHT22;5969;50.780;7.726;2023-05-10T06:11:04;12.80;99.90
11824;DHT22;5969;50.780;7.726;2023-05-10T06:13:31;12.90;99.90
11824;DHT22;5969;50.780;7.726;2023-05-10T06:16:00;13.10;99.90
11824;DHT22;5969;50.780;7.726;2023-05-10T06:18:29;13.20;99.90
11824;DHT22;5969;50.780;7.726;2023-05-10T06:20:55;13.20;99.90
11824;DHT22;5969;50.780;7.726;2023-05-10T06:23:22;13.10;99.90
11824;DHT22;5969;50.780;7.726;2023-05-10T06:25:51;13.20;99.90
11824;DHT22;5969;50.780;7.726;2023-05-10T06:28:17;13.10;99.90
11824;DHT22;5969;50.780;7.726;2023-05-10T06:30:44;13.10;99.90
11824;DHT22;5969;50.780;7.726;2023-05-10T06:33:11;13.00;99.90
11824;DHT22;5969;50.780;7.726;2023-05-10T06:35:39;12.90;99.90
11824;DHT22;5969;50.780;7.726;2023-05-10T06:38:06;12.90;99.90
11824;DHT22;5969;50.780;7.726;2023-05-10T06:40:33;13.00;99.90
11824;DHT22;5969;50.780;7.726;2023-05-10T06:42:59;13.00;99.90
11824;DHT22;5969;50.780;7.726;2023-05-10T06:45:26;13.00;99.90
11824;DHT22;5969;50.780;7.726;2023-05-10T06:47:53;12.90;99.90
11824;DHT22;5969;50.780;7.726;2023-05-10T06:50:20;12.90;99.90
11824;DHT22;5969;50.780;7.726;2023-05-10T06:52:48;12.60;99.90
11824;DHT22;5969;50.780;7.726;2023-05-10T06:55:15;12.60;99.90
11824;DHT22;5969;50.780;7.726;2023-05-10T06:57:42;12.70;99.90
11824;DHT22;5969;50.780;7.726;2023-05-10T07:00:09;12.60;99.90
11824;DHT22;5969;50.780;7.726;2023-05-10T07:02:36;12.50;99.90
11824;DHT22;5969;50.780;7.726;2023-05-10T07:05:04;12.50;99.90
11824;DHT22;5969;50.780;7.726;2023-05-10T07:07:30;12.60;99.90
11824;DHT22;5969;50.780;7.726;2023-05-10T07:09:59;12.70;99.90
11824;DHT22;5969;50.780;7.726;2023-05-10T07:12:25;12.60;99.90
11824;DHT22;5969;50.780;7.726;2023-05-10T07:14:52;12.60;99.90
11824;DHT22;5969;50.780;7.726;2023-05-10T07:17:19;12.60;99.90
11824;DHT22;5969;50.780;7.726;2023-05-10T07:19:46;12.50;99.90
11824;DHT22;5969;50.780;7.726;2023-05-10T07:22:14;12.60;99.90
11824;DHT22;5969;50.780;7.726;2023-05-10T07:24:40;12.40;99.90
11824;DHT22;5969;50.780;7.726;2023-05-10T07:27:09;12.50;99.90
11824;DHT22;5969;50.780;7.726;2023-05-10T07:29:35;12.50;99.90
11824;DHT22;5969;50.780;7.726;2023-05-10T07:32:03;12.50;99.90
11824;DHT22;5969;50.780;7.726;2023-05-10T07:34:29;12.60;99.90
11824;DHT22;5969;50.780;7.726;2023-05-10T07:36:58;12.70;99.90
11824;DHT22;5969;50.780;7.726;2023-05-10T07:39:25;12.70;99.90
11824;DHT22;5969;50.780;7.726;2023-05-10T07:41:52;12.80;99.90
11824;DHT22;5969;50.780;7.726;2023-05-10T07:44:20;13.00;99.90
11824;DHT22;5969;50.780;7.726;2023-05-10T07:46:47;13.10;99.90
11824;DHT22;5969;50.780;7.726;2023-05-10T07:49:14;13.30;99.90
11824;DHT22;5969;50.780;7.726;2023-05-10T07:51:41;13.40;99.90
11824;DHT22;5969;50.780;7.726;2023-05-10T07:54:08;13.60;99.90
11824;DHT22;5969;50.780;7.726;2023-05-10T07:56:35;13.70;99.90
11824;DHT22;5969;50.780;7.726;2023-05-10T07:59:02;13.90;99.90
11824;DHT22;5969;50.780;7.726;2023-05-10T08:01:32;13.90;99.90
11824;DHT22;5969;50.780;7.726;2023-05-10T08:04:00;14.00;99.90
11824;DHT22;5969;50.780;7.726;2023-05-10T08:06:27;14.20;99.90
11824;DHT22;5969;50.780;7.726;2023-05-10T08:08:55;14.30;99.90
11824;DHT22;5969;50.780;7.726;2023-05-10T08:11:23;14.30;99.90
11824;DHT22;5969;50.780;7.726;2023-05-10T08:13:50;14.40;99.90
11824;DHT22;5969;50.780;7.726;2023-05-10T08:16:18;14.50;99.90
11824;DHT22;5969;50.780;7.726;2023-05-10T08:18:46;14.50;99.90
11824;DHT22;5969;50.780;7.726;2023-05-10T08:21:14;14.60;99.90
11824;DHT22;5969;50.780;7.726;2023-05-10T08:23:41;14.70;99.90
11824;DHT22;5969;50.780;7.726;2023-05-10T08:26:09;14.70;99.90
11824;DHT22;5969;50.780;7.726;2023-05-10T08:28:35;14.40;99.90
11824;DHT22;5969;50.780;7.726;2023-05-10T08:31:02;14.30;99.90
11824;DHT22;5969;50.780;7.726;2023-05-10T08:33:29;14.20;99.90
11824;DHT22;5969;50.780;7.726;2023-05-10T08:35:57;14.10;99.90
11824;DHT22;5969;50.780;7.726;2023-05-10T08:38:24;14.10;99.90
11824;DHT22;5969;50.780;7.726;2023-05-10T08:40:54;14.00;99.90
11824;DHT22;5969;50.780;7.726;2023-05-10T08:43:26;14.20;99.90
11824;DHT22;5969;50.780;7.726;2023-05-10T08:45:54;14.20;99.90
11824;DHT22;5969;50.780;7.726;2023-05-10T08:48:23;14.10;99.90
11824;DHT22;5969;50.780;7.726;2023-05-10T08:50:52;14.20;99.90
11824;DHT22;5969;50.780;7.726;2023-05-10T08:53:24;14.10;99.90
11824;DHT22;5969;50.780;7.726;2023-05-10T08:55:52;14.20;99.90
11824;DHT22;5969;50.780;7.726;2023-05-10T08:58:19;14.20;99.90
11824;DHT22;5969;50.780;7.726;2023-05-10T09:00:48;14.10;99.90
11824;DHT22;5969;50.780;7.726;2023-05-10T09:03:16;14.20;99.90
11824;DHT22;5969;50.780;7.726;2023-05-10T09:05:44;14.10;99.90
11824;DHT22;5969;50.780;7.726;2023-05-10T09:08:12;14.20;99.90
11824;DHT22;5969;50.780;7.726;2023-05-10T09:10:43;14.10;99.90
11824;DHT22;5969;50.780;7.726;2023-05-10T09:13:12;14.00;99.90
11824;DHT22;5969;50.780;7.726;2023-05-10T09:15:40;14.20;99.90
11824;DHT22;5969;50.780;7.726;2023-05-10T09:18:07;14.30;99.90
11824;DHT22;5969;50.780;7.726;2023-05-10T09:20:34;14.30;99.90
11824;DHT22;5969;50.780;7.726;2023-05-10T09:23:01;14.50;99.90
11824;DHT22;5969;50.780;7.726;2023-05-10T09:25:28;14.80;99.90
11824;DHT22;5969;50.780;7.726;2023-05-10T09:27:56;14.50;99.90
11824;DHT22;5969;50.780;7.726;2023-05-10T09:30:27;14.60;99.90
11824;DHT22;5969;50.780;7.726;2023-05-10T09:32:55;14.60;99.90
11824;DHT22;5969;50.780;7.726;2023-05-10T09:35:23;14.80;99.90
11824;DHT22;5969;50.780;7.726;2023-05-10T09:37:54;15.00;99.90
11824;DHT22;5969;50.780;7.726;2023-05-10T09:40:23;15.40;99.90
11824;DHT22;5969;50.780;7.726;2023-05-10T09:42:56;15.60;99.90
11824;DHT22;5969;50.780;7.726;2023-05-10T09:45:26;15.50;99.90
11824;DHT22;5969;50.780;7.726;2023-05-10T09:47:53;15.80;99.90
11824;DHT22;5969;50.780;7.726;2023-05-10T09:50:21;15.90;99.90
11824;DHT22;5969;50.780;7.726;2023-05-10T09:52:49;15.60;99.90
11824;DHT22;5969;50.780;7.726;2023-05-10T09:55:18;15.80;99.90
11824;DHT22;5969;50.780;7.726;2023-05-10T09:57:45;15.60;99.90
11824;DHT22;5969;50.780;7.726;2023-05-10T10:00:18;15.60;99.90
11824;DHT22;5969;50.780;7.726;2023-05-10T10:02:48;15.90;99.90
11824;DHT22;5969;50.780;7.726;2023-05-10T10:05:20;16.00;99.90
11824;DHT22;5969;50.780;7.726;2023-05-10T10:07:47;16.10;99.90
11824;DHT22;5969;50.780;7.726;2023-05-10T10:10:15;16.10;99.90
11824;DHT22;5969;50.780;7.726;2023-05-10T10:12:42;15.60;99.90
11824;DHT22;5969;50.780;7.726;2023-05-10T10:15:10;15.70;99.90
11824;DHT22;5969;50.780;7.726;2023-05-10T10:17:37;15.60;99.90
11824;DHT22;5969;50.780;7.726;2023-05-10T10:20:07;15.70;99.90
11824;DHT22;5969;50.780;7.726;2023-05-10T10:22:35;15.50;99.90
11824;DHT22;5969;50.780;7.726;2023-05-10T10:25:04;15.40;99.90
11824;DHT22;5969;50.780;7.726;2023-05-10T10:27:39;15.50;99.90
11824;DHT22;5969;50.780;7.726;2023-05-10T10:30:23;15.30;99.90
11824;DHT22;5969;50.780;7.726;2023-05-10T10:33:01;15.10;99.90
11824;DHT22;5969;50.780;7.726;2023-05-10T10:35:35;15.30;99.90
11824;DHT22;5969;50.780;7.726;2023-05-10T10:38:03;15.00;99.90
11824;DHT22;5969;50.780;7.726;2023-05-10T10:40:30;15.00;99.90
11824;DHT22;5969;50.780;7.726;2023-05-10T10:42:58;15.30;99.90
11824;DHT22;5969;50.780;7.726;2023-05-10T10:45:25;15.30;99.90
11824;DHT22;5969;50.780;7.726;2023-05-10T10:48:21;14.80;99.90
11824;DHT22;5969;50.780;7.726;2023-05-10T10:50:56;14.90;99.90
11824;DHT22;5969;50.780;7.726;2023-05-10T10:53:26;14.90;99.90
11824;DHT22;5969;50.780;7.726;2023-05-10T10:56:04;14.50;99.90
11824;DHT22;5969;50.780;7.726;2023-05-10T10:58:33;14.10;99.90
11824;DHT22;5969;50.780;7.726;2023-05-10T11:01:10;13.90;99.90
11824;DHT22;5969;50.780;7.726;2023-05-10T11:03:38;14.30;99.90
11824;DHT22;5969;50.780;7.726;2023-05-10T11:06:06;14.70;99.90
11824;DHT22;5969;50.780;7.726;2023-05-10T11:08:41;14.50;99.90
11824;DHT22;5969;50.780;7.726;2023-05-10T11:11:09;14.80;99.90
11824;DHT22;5969;50.780;7.726;2023-05-10T11:13:41;15.00;99.90
11824;DHT22;5969;50.780;7.726;2023-05-10T11:16:16;15.00;99.90
11824;DHT22;5969;50.780;7.726;2023-05-10T11:18:54;15.10;99.90
11824;DHT22;5969;50.780;7.726;2023-05-10T11:21:26;14.80;99.90
11824;DHT22;5969;50.780;7.726;2023-05-10T11:23:54;14.80;99.90
11824;DHT22;5969;50.780;7.726;2023-05-10T11:26:23;14.70;99.90
11824;DHT22;5969;50.780;7.726;2023-05-10T11:28:51;14.70;99.90
11824;DHT22;5969;50.780;7.726;2023-05-10T11:31:19;14.70;99.90
11824;DHT22;5969;50.780;7.726;2023-05-10T11:33:48;14.70;99.90
11824;DHT22;5969;50.780;7.726;2023-05-10T11:36:17;14.80;99.90
11824;DHT22;5969;50.780;7.726;2023-05-10T11:38:46;15.00;99.90
11824;DHT22;5969;50.780;7.726;2023-05-10T11:41:13;15.30;99.90
11824;DHT22;5969;50.780;7.726;2023-05-10T11:43:40;15.60;99.90
11824;DHT22;5969;50.780;7.726;2023-05-10T11:46:09;15.80;99.90
11824;DHT22;5969;50.780;7.726;2023-05-10T11:48:37;16.00;99.90
11824;DHT22;5969;50.780;7.726;2023-05-10T11:51:05;15.90;99.90
11824;DHT22;5969;50.780;7.726;2023-05-10T11:53:32;15.70;99.90
11824;DHT22;5969;50.780;7.726;2023-05-10T11:56:05;15.50;99.90
11824;DHT22;5969;50.780;7.726;2023-05-10T11:58:32;15.50;99.90
11824;DHT22;5969;50.780;7.726;2023-05-10T12:00:59;15.40;99.90
11824;DHT22;5969;50.780;7.726;2023-05-10T12:03:27;15.30;99.90
11824;DHT22;5969;50.780;7.726;2023-05-10T12:05:54;15.00;99.90
11824;DHT22;5969;50.780;7.726;2023-05-10T12:08:23;15.00;99.90
11824;DHT22;5969;50.780;7.726;2023-05-10T12:10:50;14.80;99.90
11824;DHT22;5969;50.780;7.726;2023-05-10T12:13:20;14.80;99.90
11824;DHT22;5969;50.780;7.726;2023-05-10T12:15:47;14.60;99.90
11824;DHT22;5969;50.780;7.726;2023-05-10T12:18:14;14.60;99.90
11824;DHT22;5969;50.780;7.726;2023-05-10T12:20:41;14.80;99.90
11824;DHT22;5969;50.780;7.726;2023-05-10T12:23:09;15.00;99.90
11824;DHT22;5969;50.780;7.726;2023-05-10T12:25:37;15.10;99.90
11824;DHT22;5969;50.780;7.726;2023-05-10T12:28:06;14.60;99.90
11824;DHT22;5969;50.780;7.726;2023-05-10T12:30:35;14.60;99.90
11824;DHT22;5969;50.780;7.726;2023-05-10T12:33:07;14.70;99.90
11824;DHT22;5969;50.780;7.726;2023-05-10T12:35:44;14.40;99.90
11824;DHT22;5969;50.780;7.726;2023-05-10T12:38:28;14.60;99.90
11824;DHT22;5969;50.780;7.726;2023-05-10T12:40:56;14.20;99.90
11824;DHT22;5969;50.780;7.726;2023-05-10T12:43:23;14.30;99.90
11824;DHT22;5969;50.780;7.726;2023-05-10T12:45:52;14.20;99.90
11824;DHT22;5969;50.780;7.726;2023-05-10T12:48:18;14.00;99.90
11824;DHT22;5969;50.780;7.726;2023-05-10T12:50:45;14.10;99.90
11824;DHT22;5969;50.780;7.726;2023-05-10T12:53:13;14.20;99.90
11824;DHT22;5969;50.780;7.726;2023-05-10T12:55:40;14.40;99.90
11824;DHT22;5969;50.780;7.726;2023-05-10T12:58:07;14.70;99.90
11824;DHT22;5969;50.780;7.726;2023-05-10T13:00:34;14.80;99.90
11824;DHT22;5969;50.780;7.726;2023-05-10T13:03:05;14.90;99.90
11824;DHT22;5969;50.780;7.726;2023-05-10T13:05:32;15.20;99.90
11824;DHT22;5969;50.780;7.726;2023-05-10T13:07:59;15.40;99.90
11824;DHT22;5969;50.780;7.726;2023-05-10T13:10:26;15.50;99.90
11824;DHT22;5969;50.780;7.726;2023-05-10T13:12:52;15.40;99.90
11824;DHT22;5969;50.780;7.726;2023-05-10T13:15:19;15.40;99.90
11824;DHT22;5969;50.780;7.726;2023-05-10T13:17:48;15.60;99.90
11824;DHT22;5969;50.780;7.726;2023-05-10T13:20:17;15.70;99.90
11824;DHT22;5969;50.780;7.726;2023-05-10T13:22:44;15.80;99.90
11824;DHT22;5969;50.780;7.726;2023-05-10T13:25:11;15.70;99.90
11824;DHT22;5969;50.780;7.726;2023-05-10T13:27:39;15.80;99.90
11824;DHT22;5969;50.780;7.726;2023-05-10T13:30:07;16.00;99.90
11824;DHT22;5969;50.780;7.726;2023-05-10T13:32:34;16.00;99.90
11824;DHT22;5969;50.780;7.726;2023-05-10T13:35:01;16.20;99.90
11824;DHT22;5969;50.780;7.726;2023-05-10T13:37:30;16.70;99.90
11824;DHT22;5969;50.780;7.726;2023-05-10T13:40:23;17.00;99.90
11824;DHT22;5969;50.780;7.726;2023-05-10T13:42:50;17.30;99.90
11824;DHT22;5969;50.780;7.726;2023-05-10T13:45:16;17.40;99.90
11824;DHT22;5969;50.780;7.726;2023-05-10T13:47:43;17.70;99.90
11824;DHT22;5969;50.780;7.726;2023-05-10T13:50:10;17.90;99.90
11824;DHT22;5969;50.780;7.726;2023-05-10T13:52:40;18.20;99.90
11824;DHT22;5969;50.780;7.726;2023-05-10T13:55:08;18.10;99.90
11824;DHT22;5969;50.780;7.726;2023-05-10T13:57:37;17.90;99.90
11824;DHT22;5969;50.780;7.726;2023-05-10T14:00:09;17.70;99.90
11824;DHT22;5969;50.780;7.726;2023-05-10T14:02:36;17.80;99.90
11824;DHT22;5969;50.780;7.726;2023-05-10T14:05:03;17.60;99.90
11824;DHT22;5969;50.780;7.726;2023-05-10T14:07:35;17.80;99.90
11824;DHT22;5969;50.780;7.726;2023-05-10T14:10:04;18.00;99.90
11824;DHT22;5969;50.780;7.726;2023-05-10T14:12:31;18.00;99.90
11824;DHT22;5969;50.780;7.726;2023-05-10T14:14:58;18.10;99.90
11824;DHT22;5969;50.780;7.726;2023-05-10T14:17:25;17.70;99.90
11824;DHT22;5969;50.780;7.726;2023-05-10T14:19:52;17.70;99.90
11824;DHT22;5969;50.780;7.726;2023-05-10T14:22:19;18.10;99.90
11824;DHT22;5969;50.780;7.726;2023-05-10T14:24:46;18.00;99.90
11824;DHT22;5969;50.780;7.726;2023-05-10T14:27:14;17.80;99.90
11824;DHT22;5969;50.780;7.726;2023-05-10T14:29:41;17.80;99.90
11824;DHT22;5969;50.780;7.726;2023-05-10T14:32:08;17.10;99.90
11824;DHT22;5969;50.780;7.726;2023-05-10T14:34:35;16.50;99.90
11824;DHT22;5969;50.780;7.726;2023-05-10T14:37:02;15.90;99.90
11824;DHT22;5969;50.780;7.726;2023-05-10T14:39:30;15.60;99.90
11824;DHT22;5969;50.780;7.726;2023-05-10T14:41:57;15.50;99.90
11824;DHT22;5969;50.780;7.726;2023-05-10T14:44:38;15.20;99.90
11824;DHT22;5969;50.780;7.726;2023-05-10T14:47:05;15.00;99.90
11824;DHT22;5969;50.780;7.726;2023-05-10T14:49:32;14.90;99.90
11824;DHT22;5969;50.780;7.726;2023-05-10T14:52:01;14.70;99.90
11824;DHT22;5969;50.780;7.726;2023-05-10T14:54:28;14.70;99.90
11824;DHT22;5969;50.780;7.726;2023-05-10T14:56:55;14.60;99.90
11824;DHT22;5969;50.780;7.726;2023-05-10T14:59:22;14.40;99.90
11824;DHT22;5969;50.780;7.726;2023-05-10T15:01:50;14.10;99.90
11824;DHT22;5969;50.780;7.726;2023-05-10T15:04:17;13.90;99.90
11824;DHT22;5969;50.780;7.726;2023-05-10T15:06:43;13.60;99.90
11824;DHT22;5969;50.780;7.726;2023-05-10T15:09:10;13.70;99.90
11824;DHT22;5969;50.780;7.726;2023-05-10T15:11:37;13.80;99.90
11824;DHT22;5969;50.780;7.726;2023-05-10T15:14:04;13.80;99.90
11824;DHT22;5969;50.780;7.726;2023-05-10T15:16:31;13.70;99.90
11824;DHT22;5969;50.780;7.726;2023-05-10T15:18:59;13.70;99.90
11824;DHT22;5969;50.780;7.726;2023-05-10T15:21:26;13.70;99.90
11824;DHT22;5969;50.780;7.726;2023-05-10T15:23:53;13.60;99.90
11824;DHT22;5969;50.780;7.726;2023-05-10T15:26:20;13.70;99.90
11824;DHT22;5969;50.780;7.726;2023-05-10T15:29:03;13.80;99.90
11824;DHT22;5969;50.780;7.726;2023-05-10T15:31:30;13.90;99.90
11824;DHT22;5969;50.780;7.726;2023-05-10T15:34:01;14.10;99.90
11824;DHT22;5969;50.780;7.726;2023-05-10T15:36:28;14.30;99.90
11824;DHT22;5969;50.780;7.726;2023-05-10T15:38:55;14.60;99.90
11824;DHT22;5969;50.780;7.726;2023-05-10T15:41:22;14.50;99.90
11824;DHT22;5969;50.780;7.726;2023-05-10T15:43:50;14.80;99.90
11824;DHT22;5969;50.780;7.726;2023-05-10T15:46:17;14.90;99.90
11824;DHT22;5969;50.780;7.726;2023-05-10T15:48:43;14.90;99.90
11824;DHT22;5969;50.780;7.726;2023-05-10T15:51:12;15.00;99.90
11824;DHT22;5969;50.780;7.726;2023-05-10T15:53:39;14.80;99.90